createdAt,value
2022-12-13T00:00:14.602Z,0.20
2022-12-13T00:02:16.357Z,0.20
2022-12-13T00:04:20.428Z,0.30
2022-12-13T00:06:22.463Z,0.50
2022-12-13T00:08:24.284Z,0.20
2022-12-13T00:10:26.119Z,0.20
2022-12-13T00:12:27.888Z,0.20
2022-12-13T00:14:29.985Z,0.20
2022-12-13T00:16:31.719Z,0.20
2022-12-13T00:18:34.240Z,0.20
2022-12-13T00:20:43.673Z,0.20
2022-12-13T00:22:45.432Z,0.20
2022-12-13T00:24:49.492Z,0.20
2022-12-13T00:26:54.671Z,0.10
2022-12-13T00:29:00.379Z,0.10
2022-12-13T00:31:35.250Z,0.10
2022-12-13T00:33:27.292Z,0.10
2022-12-13T00:35:29.021Z,0.10
2022-12-13T00:37:31.141Z,0.10
2022-12-13T00:39:32.817Z,0.10
2022-12-13T00:41:35.968Z,0.10
2022-12-13T00:43:37.866Z,0.00
2022-12-13T00:45:39.804Z,0.10
2022-12-13T00:47:43.699Z,0.10
2022-12-13T00:49:45.360Z,0.10
2022-12-13T00:51:49.340Z,0.10
2022-12-13T00:53:51.266Z,0.00
2022-12-13T00:55:52.947Z,0.00
2022-12-13T00:57:54.726Z,0.00
2022-12-13T00:59:56.551Z,0.00
2022-12-13T01:01:58.375Z,0.00
2022-12-13T01:04:02.392Z,0.00
2022-12-13T01:06:34.056Z,0.00
2022-12-13T01:08:39.412Z,0.00
2022-12-13T01:10:47.694Z,0.00
2022-12-13T01:12:49.355Z,0.00
2022-12-13T01:14:55.926Z,0.00
2022-12-13T01:17:00.327Z,0.00
2022-12-13T01:19:02.187Z,-0.10
2022-12-13T01:21:16.449Z,0.00
2022-12-13T01:23:18.133Z,-0.10
2022-12-13T01:25:19.779Z,-0.10
2022-12-13T01:27:21.538Z,-0.10
2022-12-13T01:29:24.121Z,-0.10
2022-12-13T01:31:27.818Z,-0.10
2022-12-13T01:33:30.161Z,-0.10
2022-12-13T01:35:35.000Z,-0.10
2022-12-13T01:37:37.360Z,-0.10
2022-12-13T01:39:39.437Z,-0.10
2022-12-13T01:41:41.709Z,-0.10
2022-12-13T01:43:43.341Z,-0.10
2022-12-13T01:45:45.910Z,-0.10
2022-12-13T01:47:51.582Z,-0.10
2022-12-13T01:49:55.751Z,-0.10
2022-12-13T01:52:05.768Z,-0.10
2022-12-13T01:54:11.645Z,-0.10
2022-12-13T01:56:26.025Z,-0.10
2022-12-13T01:58:28.507Z,-0.10
2022-12-13T02:00:30.676Z,-0.10
2022-12-13T02:02:32.350Z,-0.10
2022-12-13T02:04:45.552Z,-0.10
2022-12-13T02:06:47.820Z,-0.10
2022-12-13T02:08:49.711Z,-0.10
2022-12-13T02:10:54.177Z,-0.20
2022-12-13T02:12:59.174Z,-0.20
2022-12-13T02:15:05.143Z,-0.20
2022-12-13T02:17:45.050Z,-0.20
2022-12-13T02:20:09.904Z,-0.20
2022-12-13T02:22:48.748Z,-0.20
2022-12-13T02:25:18.565Z,-0.20
2022-12-13T02:27:51.161Z,-0.30
2022-12-13T02:30:22.491Z,-0.30
2022-12-13T02:32:52.108Z,-0.30
2022-12-13T02:35:12.043Z,-0.30
2022-12-13T02:37:44.078Z,-0.30
2022-12-13T02:39:58.263Z,-0.30
2022-12-13T02:42:22.369Z,-0.40
2022-12-13T02:44:31.080Z,-0.40
2022-12-13T02:46:38.550Z,-0.40
2022-12-13T02:48:42.679Z,-0.40
2022-12-13T02:50:45.700Z,-0.40
2022-12-13T02:52:51.313Z,-0.40
2022-12-13T02:54:57.345Z,-0.40
2022-12-13T02:57:00.211Z,-0.50
2022-12-13T02:59:05.699Z,-0.40
2022-12-13T03:01:47.528Z,-0.50
2022-12-13T03:04:01.033Z,-0.40
2022-12-13T03:06:34.093Z,-0.50
2022-12-13T03:08:51.503Z,-0.50
2022-12-13T03:10:59.577Z,-0.50
2022-12-13T03:13:25.414Z,-0.50
2022-12-13T03:15:35.692Z,-0.50
2022-12-13T03:18:15.438Z,-0.50
2022-12-13T03:20:23.599Z,-0.50
2022-12-13T03:22:25.427Z,-0.50
2022-12-13T03:24:27.155Z,-0.90
2022-12-13T03:26:29.795Z,-0.50
2022-12-13T03:28:33.769Z,-0.50
2022-12-13T03:30:35.805Z,-0.50
2022-12-13T03:32:37.974Z,-0.60
2022-12-13T03:34:44.051Z,-0.60
2022-12-13T03:36:47.194Z,-0.60
2022-12-13T03:38:52.147Z,-0.50
2022-12-13T03:41:05.646Z,-0.60
2022-12-13T03:43:07.414Z,-0.50
2022-12-13T03:45:09.488Z,-0.60
2022-12-13T03:47:11.781Z,-0.60
2022-12-13T03:49:17.314Z,-0.60
2022-12-13T03:51:19.507Z,-0.60
2022-12-13T03:53:33.416Z,-0.60
2022-12-13T03:55:36.043Z,-0.60
2022-12-13T03:57:37.679Z,-0.60
2022-12-13T03:59:39.316Z,-0.60
2022-12-13T04:01:40.980Z,-0.60
2022-12-13T04:03:44.575Z,-0.60
2022-12-13T04:05:46.364Z,-0.60
2022-12-13T04:07:48.779Z,-0.60
2022-12-13T04:09:50.477Z,-0.60
2022-12-13T04:12:14.049Z,-0.60
2022-12-13T04:14:22.904Z,-0.60
2022-12-13T04:16:24.952Z,-0.60
2022-12-13T04:18:26.632Z,-0.60
2022-12-13T04:20:28.275Z,-0.70
2022-12-13T04:22:29.965Z,-0.60
2022-12-13T04:24:32.379Z,-0.70
2022-12-13T04:26:34.119Z,-0.70
2022-12-13T04:28:35.991Z,-0.70
2022-12-13T04:30:38.137Z,-0.70
2022-12-13T04:32:39.929Z,-0.70
2022-12-13T04:34:43.508Z,-0.70
2022-12-13T04:36:46.497Z,-0.70
2022-12-13T04:38:48.201Z,-0.70
2022-12-13T04:40:50.144Z,-0.70
2022-12-13T04:42:54.395Z,-0.80
2022-12-13T04:44:56.198Z,-0.80
2022-12-13T04:47:01.000Z,-0.80
2022-12-13T04:49:03.315Z,-0.80
2022-12-13T04:51:05.025Z,-0.80
2022-12-13T04:53:06.659Z,-0.80
2022-12-13T04:55:08.979Z,-0.80
2022-12-13T04:57:14.268Z,-0.90
2022-12-13T04:59:16.804Z,-0.90
2022-12-13T05:01:18.531Z,-0.90
2022-12-13T05:03:20.187Z,-0.90
2022-12-13T05:05:22.400Z,-0.90
2022-12-13T05:07:28.233Z,-0.90
2022-12-13T05:09:30.018Z,-0.90
2022-12-13T05:11:35.464Z,-1.00
2022-12-13T05:13:37.932Z,-1.00
2022-12-13T05:15:39.879Z,-1.00
2022-12-13T05:17:41.580Z,-1.00
2022-12-13T05:19:43.504Z,-1.00
2022-12-13T05:21:46.464Z,-1.10
2022-12-13T05:23:48.942Z,-1.00
2022-12-13T05:25:51.717Z,-1.20
2022-12-13T05:27:58.000Z,-1.10
2022-12-13T05:30:02.727Z,-1.00
2022-12-13T05:32:06.489Z,-1.10
2022-12-13T05:34:08.207Z,-1.00
2022-12-13T05:36:10.189Z,-1.00
2022-12-13T05:38:11.822Z,-1.00
2022-12-13T05:40:14.998Z,-1.00
2022-12-13T05:42:19.043Z,-1.00
2022-12-13T05:44:20.732Z,-1.00
2022-12-13T05:46:22.486Z,-1.00
2022-12-13T05:48:25.058Z,-1.00
2022-12-13T05:50:26.845Z,-0.90
2022-12-13T05:52:30.523Z,-1.00
2022-12-13T05:54:42.938Z,-1.00
2022-12-13T05:56:44.841Z,-0.90
2022-12-13T05:58:46.511Z,-0.90
2022-12-13T06:01:07.378Z,-0.90
2022-12-13T06:03:09.677Z,-0.90
2022-12-13T06:05:12.062Z,-0.90
2022-12-13T06:07:14.231Z,-0.90
2022-12-13T06:09:15.933Z,-0.90
2022-12-13T06:11:32.058Z,-0.90
2022-12-13T06:13:34.173Z,-1.00
2022-12-13T06:15:44.870Z,-1.00
2022-12-13T06:17:46.589Z,-1.00
2022-12-13T06:19:55.547Z,-1.00
2022-12-13T06:21:57.248Z,-0.90
2022-12-13T06:23:59.511Z,-1.00
2022-12-13T06:26:08.785Z,-1.00
2022-12-13T06:28:10.509Z,-1.00
2022-12-13T06:30:12.682Z,-1.00
2022-12-13T06:32:14.367Z,-1.00
2022-12-13T06:34:15.982Z,-1.00
2022-12-13T06:36:17.688Z,-1.00
2022-12-13T06:38:21.985Z,-1.00
2022-12-13T06:40:33.782Z,-1.10
2022-12-13T06:42:35.491Z,-1.10
2022-12-13T06:44:41.582Z,-1.00
2022-12-13T06:46:44.262Z,-1.10
2022-12-13T06:48:46.147Z,-1.10
2022-12-13T06:50:49.001Z,-1.10
2022-12-13T06:52:51.172Z,-1.10
2022-12-13T06:54:58.279Z,-1.10
2022-12-13T06:57:02.070Z,-1.10
2022-12-13T06:59:06.083Z,-1.10
2022-12-13T07:01:14.844Z,-1.10
2022-12-13T07:03:16.998Z,-1.00
2022-12-13T07:05:18.760Z,-1.10
2022-12-13T07:07:22.812Z,-1.10
2022-12-13T07:09:24.573Z,-1.10
2022-12-13T07:11:29.839Z,-1.10
2022-12-13T07:13:31.811Z,-1.10
2022-12-13T07:15:34.149Z,-1.10
2022-12-13T07:17:35.978Z,-1.10
2022-12-13T07:19:40.131Z,-1.20
2022-12-13T07:21:44.371Z,-1.20
2022-12-13T07:23:48.635Z,-1.20
2022-12-13T07:25:57.082Z,-1.20
2022-12-13T07:28:01.217Z,-1.20
2022-12-13T07:30:04.541Z,-1.30
2022-12-13T07:32:06.215Z,-1.30
2022-12-13T07:34:15.360Z,-1.30
2022-12-13T07:36:19.763Z,-1.30
2022-12-13T07:38:23.781Z,-1.30
2022-12-13T07:40:26.187Z,-1.30
2022-12-13T07:42:28.774Z,-1.30
2022-12-13T07:44:32.839Z,-1.40
2022-12-13T07:46:36.854Z,-1.30
2022-12-13T07:48:38.613Z,-1.30
2022-12-13T07:50:40.354Z,-1.40
2022-12-13T07:52:42.226Z,-1.40
2022-12-13T07:54:43.925Z,-1.40
2022-12-13T07:56:45.912Z,-1.40
2022-12-13T07:58:47.969Z,-1.30
2022-12-13T08:00:49.636Z,-1.30
2022-12-13T08:02:51.287Z,-1.30
2022-12-13T08:04:54.839Z,-1.30
2022-12-13T08:06:57.192Z,-1.30
2022-12-13T08:08:58.871Z,-1.30
2022-12-13T08:11:11.729Z,-1.20
2022-12-13T08:13:13.439Z,-1.20
2022-12-13T08:15:16.050Z,-1.20
2022-12-13T08:17:17.726Z,-1.20
2022-12-13T08:19:19.681Z,-1.10
2022-12-13T08:21:52.696Z,-1.10
2022-12-13T08:23:43.064Z,-1.10
2022-12-13T08:25:51.773Z,-1.10
2022-12-13T08:27:53.617Z,-1.00
2022-12-13T08:30:07.038Z,-1.00
2022-12-13T08:32:10.929Z,-1.00
2022-12-13T08:34:12.606Z,-1.00
2022-12-13T08:36:16.541Z,-1.00
2022-12-13T08:38:22.924Z,-1.00
2022-12-13T08:40:25.589Z,-0.90
2022-12-13T08:42:27.349Z,-0.90
2022-12-13T08:44:28.995Z,-0.90
2022-12-13T08:46:30.706Z,-0.90
2022-12-13T08:48:34.895Z,-0.90
2022-12-13T08:50:45.496Z,-0.90
2022-12-13T08:52:47.132Z,-0.90
2022-12-13T08:54:48.838Z,-0.70
2022-12-13T08:56:50.466Z,-0.80
2022-12-13T08:59:00.894Z,-0.80
2022-12-13T09:01:08.915Z,-0.80
2022-12-13T09:03:10.696Z,-0.80
2022-12-13T09:05:32.449Z,-0.80
2022-12-13T09:07:39.337Z,-0.70
2022-12-13T09:09:41.028Z,-0.70
2022-12-13T09:11:42.689Z,-0.70
2022-12-13T09:13:45.289Z,-0.70
2022-12-13T09:15:47.304Z,-0.70
2022-12-13T09:17:52.258Z,-0.60
2022-12-13T09:19:58.113Z,-0.60
2022-12-13T09:22:03.253Z,-0.60
2022-12-13T09:24:05.096Z,-0.60
2022-12-13T09:26:25.707Z,-0.50
2022-12-13T09:28:30.707Z,-0.50
2022-12-13T09:30:32.521Z,-0.40
2022-12-13T09:32:34.419Z,-0.40
2022-12-13T09:34:36.172Z,-0.40
2022-12-13T09:36:38.473Z,-0.30
2022-12-13T09:38:40.254Z,-0.20
2022-12-13T09:40:45.524Z,-0.20
2022-12-13T09:43:11.838Z,-0.10
2022-12-13T09:45:26.893Z,-0.10
2022-12-13T09:47:47.171Z,0.00
2022-12-13T09:49:53.012Z,0.00
2022-12-13T09:52:10.873Z,0.10
2022-12-13T09:54:20.914Z,0.10
2022-12-13T09:56:24.375Z,0.20
2022-12-13T09:58:31.884Z,0.20
2022-12-13T10:00:38.845Z,0.20
2022-12-13T10:02:58.268Z,0.30
2022-12-13T10:05:22.201Z,0.30
2022-12-13T10:07:25.252Z,0.40
2022-12-13T10:09:27.070Z,0.40
2022-12-13T10:11:31.628Z,0.50
2022-12-13T10:13:43.429Z,0.50
2022-12-13T10:15:51.747Z,0.60
2022-12-13T10:17:55.515Z,0.60
2022-12-13T10:19:58.177Z,0.60
2022-12-13T10:22:04.335Z,0.60
2022-12-13T10:24:36.505Z,0.70
2022-12-13T10:26:39.556Z,0.70
2022-12-13T10:28:42.699Z,0.80
2022-12-13T10:30:46.206Z,0.80
2022-12-13T10:32:54.881Z,0.80
2022-12-13T10:34:57.023Z,0.90
2022-12-13T10:36:59.573Z,0.90
2022-12-13T10:39:02.548Z,1.00
2022-12-13T10:41:32.958Z,1.00
2022-12-13T10:43:36.032Z,1.10
2022-12-13T10:45:41.549Z,1.10
2022-12-13T10:47:45.407Z,1.20
2022-12-13T10:49:59.302Z,1.30
2022-12-13T10:52:05.499Z,1.30
2022-12-13T10:54:18.447Z,1.40
2022-12-13T10:56:22.820Z,1.50
2022-12-13T10:58:35.865Z,1.50
2022-12-13T11:00:47.274Z,1.60
2022-12-13T11:02:56.652Z,1.70
2022-12-13T11:05:23.349Z,1.70
2022-12-13T11:07:27.760Z,1.70
2022-12-13T11:09:38.691Z,1.80
2022-12-13T11:11:43.238Z,1.90
2022-12-13T12:37:27.353Z,-1.20
2022-12-13T12:39:43.724Z,0.70
2022-12-13T12:42:06.610Z,1.00
2022-12-13T12:44:31.259Z,1.30
2022-12-13T12:47:28.607Z,1.60
2022-12-13T12:49:51.148Z,1.70
2022-12-13T12:52:11.922Z,1.90
2022-12-13T12:54:40.086Z,2.00
2022-12-13T12:56:54.951Z,2.10
2022-12-13T12:59:06.553Z,2.20
2022-12-13T13:01:43.890Z,2.30
2022-12-13T13:03:48.282Z,2.40
2022-12-13T13:06:10.982Z,2.50
2022-12-13T13:08:27.328Z,2.60
2022-12-13T13:13:13.014Z,2.70
2022-12-13T13:15:36.630Z,2.80
2022-12-13T13:17:59.977Z,2.90
2022-12-13T13:20:34.403Z,2.90
2022-12-13T13:22:44.472Z,3.00
2022-12-13T13:28:24.135Z,3.10
2022-12-13T13:30:56.043Z,3.10
2022-12-13T13:39:40.707Z,3.10
2022-12-13T13:42:25.241Z,3.10
2022-12-13T13:45:05.789Z,3.20
2022-12-13T13:47:18.807Z,3.10
2022-12-13T13:49:31.464Z,3.10
2022-12-13T13:52:24.809Z,3.10
2022-12-13T13:54:49.711Z,3.10
2022-12-13T13:57:14.831Z,3.10
2022-12-13T14:00:17.972Z,3.20
2022-12-13T14:03:35.396Z,3.20
2022-12-13T14:06:11.690Z,3.30
2022-12-13T14:08:37.000Z,3.30
2022-12-13T14:11:46.735Z,3.30
2022-12-13T14:14:02.082Z,3.30
2022-12-13T14:16:28.940Z,3.30
2022-12-13T14:19:32.388Z,3.40
2022-12-13T14:21:51.807Z,3.40
2022-12-13T14:24:42.035Z,3.30
2022-12-13T14:27:12.783Z,3.30
2022-12-13T14:29:28.976Z,3.30
2022-12-13T14:31:42.460Z,3.20
2022-12-13T14:36:36.482Z,3.10
2022-12-13T14:39:01.495Z,3.10
2022-12-13T14:44:08.171Z,3.00
2022-12-13T14:46:24.516Z,2.90
2022-12-13T14:48:49.970Z,2.90
2022-12-13T14:51:06.207Z,2.80
2022-12-13T14:53:39.503Z,2.80
2022-12-13T14:56:28.457Z,2.70
2022-12-13T14:58:31.965Z,2.70
2022-12-13T15:00:47.933Z,2.60
2022-12-13T15:03:08.623Z,2.60
2022-12-13T15:06:03.057Z,2.50
2022-12-13T15:08:32.218Z,2.50
2022-12-13T15:10:48.826Z,2.40
2022-12-13T15:15:38.029Z,2.30
2022-12-13T15:17:51.902Z,2.30
2022-12-13T15:20:32.951Z,2.20
2022-12-13T15:23:01.271Z,2.20
2022-12-13T15:25:36.210Z,2.10
2022-12-13T15:27:42.409Z,2.10
2022-12-13T15:29:59.655Z,2.00
2022-12-13T15:32:15.303Z,2.00
2022-12-13T15:34:30.566Z,1.90
2022-12-13T15:36:52.192Z,1.90
2022-12-13T15:39:03.180Z,1.90
2022-12-13T15:41:23.063Z,1.90
2022-12-13T15:43:50.994Z,1.80
2022-12-13T15:45:55.879Z,1.80
2022-12-13T15:48:06.445Z,1.80
2022-12-13T15:50:48.679Z,1.80
2022-12-13T15:53:00.923Z,1.80
2022-12-13T15:55:12.948Z,1.80
2022-12-13T15:58:09.300Z,1.80
2022-12-13T16:00:31.634Z,1.70
2022-12-13T16:02:55.116Z,1.70
2022-12-13T16:05:13.356Z,1.70
2022-12-13T16:07:31.126Z,1.70
2022-12-13T16:12:28.075Z,1.70
2022-12-13T16:14:48.954Z,1.70
2022-12-13T16:17:08.586Z,1.70
2022-12-13T16:19:27.524Z,1.60
2022-12-13T16:21:38.159Z,1.60
2022-12-13T16:23:49.600Z,1.60
2022-12-13T16:25:58.641Z,1.60
2022-12-13T16:28:33.047Z,1.60
2022-12-13T16:31:02.404Z,1.60
2022-12-13T16:33:19.055Z,1.70
2022-12-13T16:38:25.848Z,1.60
2022-12-13T16:40:43.162Z,1.70
2022-12-13T16:42:52.720Z,1.70
2022-12-13T16:45:41.527Z,1.70
2022-12-13T16:47:57.064Z,1.70
2022-12-13T16:50:08.470Z,1.70
2022-12-13T16:52:21.918Z,1.60
2022-12-13T16:54:46.380Z,1.70
2022-12-13T16:56:54.187Z,1.60
2022-12-13T16:59:17.002Z,1.70
2022-12-13T17:01:27.851Z,1.60
2022-12-13T17:06:19.599Z,1.60
2022-12-13T17:08:18.563Z,1.60
2022-12-13T17:10:27.167Z,1.60
2022-12-13T17:12:33.433Z,1.60
2022-12-13T17:14:35.549Z,1.60
2022-12-13T17:16:49.433Z,1.60
2022-12-13T17:18:54.143Z,1.60
2022-12-13T17:21:17.528Z,1.60
2022-12-13T17:23:26.551Z,1.60
2022-12-13T17:25:29.433Z,1.60
2022-12-13T17:27:35.870Z,1.60
2022-12-13T17:30:10.505Z,1.60
2022-12-13T17:32:43.697Z,1.60
2022-12-13T17:34:48.729Z,1.60
2022-12-13T17:36:58.103Z,1.60
2022-12-13T17:39:05.843Z,1.60
2022-12-13T17:41:10.690Z,1.60
2022-12-13T17:43:32.949Z,1.60
2022-12-13T17:45:44.469Z,1.50
2022-12-13T17:47:49.470Z,1.50
2022-12-13T17:52:54.366Z,1.50
2022-12-13T17:55:02.123Z,1.50
2022-12-13T17:57:16.401Z,1.50
2022-12-13T17:59:26.143Z,1.50
2022-12-13T18:01:30.777Z,1.50
2022-12-13T18:03:37.657Z,1.50
2022-12-13T18:05:46.735Z,1.50
2022-12-13T18:12:10.031Z,1.40
2022-12-13T18:14:18.383Z,1.40
2022-12-13T18:16:37.341Z,1.40
2022-12-13T18:19:05.265Z,1.40
2022-12-13T18:21:18.744Z,1.40
2022-12-13T18:23:55.277Z,1.40
2022-12-13T18:26:06.186Z,1.60
2022-12-13T18:30:29.452Z,1.40
2022-12-13T18:32:38.294Z,1.40
2022-12-13T18:34:47.838Z,1.30
2022-12-13T18:37:15.841Z,1.30
2022-12-13T18:39:25.144Z,1.30
2022-12-13T18:41:30.728Z,1.30
2022-12-13T18:43:45.266Z,1.30
2022-12-13T18:45:55.257Z,1.30
2022-12-13T18:48:12.877Z,1.30
2022-12-13T18:50:35.513Z,1.30
2022-12-13T18:53:00.607Z,1.30
2022-12-13T18:55:16.010Z,1.30
2022-12-13T18:57:30.970Z,1.30
2022-12-13T18:59:39.681Z,1.30
2022-12-13T19:01:55.396Z,1.30
2022-12-13T19:04:12.808Z,1.30
2022-12-13T19:06:39.345Z,1.30
2022-12-13T19:09:07.246Z,1.30
2022-12-13T19:13:58.398Z,1.30
2022-12-13T19:16:18.537Z,1.30
2022-12-13T19:18:32.832Z,1.30
2022-12-13T19:23:30.071Z,1.30
2022-12-13T19:25:49.940Z,1.30
2022-12-13T19:28:15.337Z,1.30
2022-12-13T19:30:28.103Z,1.30
2022-12-13T19:32:35.794Z,1.30
2022-12-13T19:34:43.215Z,1.30
2022-12-13T19:37:01.627Z,1.30
2022-12-13T19:39:26.067Z,1.30
2022-12-13T19:41:33.941Z,1.30
2022-12-13T19:43:44.597Z,1.30
2022-12-13T19:46:05.919Z,1.30
2022-12-13T19:48:10.205Z,1.30
2022-12-13T19:50:23.634Z,1.30
2022-12-13T19:55:18.202Z,1.30
2022-12-13T19:57:44.597Z,1.30
2022-12-13T20:00:02.787Z,1.40
2022-12-13T20:02:24.905Z,1.30
2022-12-13T20:04:36.953Z,1.40
2022-12-13T20:06:40.833Z,1.30
2022-12-13T20:08:48.608Z,1.30
2022-12-13T20:13:30.557Z,1.30
2022-12-13T20:15:38.698Z,1.30
2022-12-13T20:17:55.683Z,1.30
2022-12-13T20:20:17.408Z,1.30
2022-12-13T20:22:29.163Z,1.30
2022-12-13T20:24:58.191Z,1.30
2022-12-13T20:27:22.768Z,1.30
2022-12-13T20:29:29.353Z,1.30
2022-12-13T20:31:49.095Z,1.30
2022-12-13T20:34:06.140Z,1.30
2022-12-13T20:36:25.911Z,1.30
2022-12-13T20:38:45.471Z,1.30
2022-12-13T20:40:52.749Z,1.20
2022-12-13T20:43:18.137Z,1.20
2022-12-13T20:45:26.194Z,1.30
2022-12-13T20:47:37.965Z,1.20
2022-12-13T20:49:49.281Z,1.20
2022-12-13T20:51:51.094Z,1.20
2022-12-13T20:54:04.640Z,1.20
2022-12-13T20:56:21.561Z,1.20
2022-12-13T20:58:30.182Z,1.20
2022-12-13T21:00:38.632Z,1.20
2022-12-13T21:02:46.052Z,1.20
2022-12-13T21:05:06.347Z,1.20
2022-12-13T21:07:14.798Z,1.20
2022-12-13T21:09:21.979Z,1.20
2022-12-13T21:11:37.637Z,1.20
2022-12-13T21:15:57.042Z,1.20
2022-12-13T21:18:19.638Z,1.20
2022-12-13T21:20:26.858Z,1.20
2022-12-13T21:24:55.461Z,1.20
2022-12-13T21:27:10.283Z,1.20
2022-12-13T21:29:25.623Z,1.20
2022-12-13T21:31:31.108Z,1.20
2022-12-13T21:33:45.265Z,1.20
2022-12-13T21:35:54.846Z,1.20
2022-12-13T21:38:11.055Z,1.20
2022-12-13T21:40:19.995Z,1.20
2022-12-13T21:42:31.809Z,1.20
2022-12-13T21:44:44.177Z,1.20
2022-12-13T21:47:12.833Z,1.30
2022-12-13T21:49:30.344Z,1.30
2022-12-13T21:51:48.601Z,1.30
2022-12-13T21:54:10.084Z,1.30
2022-12-13T21:56:43.529Z,1.20
2022-12-13T21:59:13.486Z,1.20
2022-12-13T22:01:26.315Z,1.30
2022-12-13T22:03:50.160Z,1.20
2022-12-13T22:06:04.109Z,1.20
2022-12-13T22:08:07.813Z,1.20
2022-12-13T22:10:09.769Z,1.20
2022-12-13T22:12:21.198Z,1.20
2022-12-13T22:14:23.074Z,1.20
2022-12-13T22:16:27.205Z,1.10
2022-12-13T22:18:29.283Z,1.10
2022-12-13T22:20:34.582Z,1.10
2022-12-13T22:22:38.273Z,1.10
2022-12-13T22:24:42.276Z,1.10
2022-12-13T22:26:43.971Z,1.10
2022-12-13T22:28:45.706Z,1.10
2022-12-13T22:30:55.827Z,1.10
2022-12-13T22:32:57.490Z,1.10
2022-12-13T22:35:03.632Z,1.10
2022-12-13T22:37:05.360Z,1.10
2022-12-13T22:39:07.080Z,1.10
2022-12-13T22:41:14.138Z,1.10
2022-12-13T22:43:20.398Z,1.00
2022-12-13T22:45:22.374Z,1.00
2022-12-13T22:47:24.068Z,1.00
2022-12-13T22:49:25.978Z,1.00
2022-12-13T22:51:27.650Z,1.00
2022-12-13T22:53:29.656Z,1.00
2022-12-13T22:55:31.724Z,1.00
2022-12-13T22:57:33.374Z,0.90
2022-12-13T22:59:35.069Z,0.90
2022-12-13T23:01:40.369Z,0.90
2022-12-13T23:03:43.187Z,0.90
2022-12-13T23:05:44.844Z,0.90
2022-12-13T23:07:48.912Z,0.90
2022-12-13T23:09:50.861Z,0.90
2022-12-13T23:12:11.430Z,0.90
2022-12-13T23:14:15.886Z,0.90
2022-12-13T23:16:17.674Z,0.80
2022-12-13T23:18:19.484Z,0.80
2022-12-13T23:20:22.460Z,0.80
2022-12-13T23:22:25.578Z,0.80
2022-12-13T23:24:27.813Z,0.80
2022-12-13T23:26:31.791Z,0.80
2022-12-13T23:28:33.465Z,0.80
2022-12-13T23:30:37.985Z,0.80
2022-12-13T23:33:28.901Z,0.80
2022-12-13T23:35:33.108Z,0.80
2022-12-13T23:37:37.338Z,0.80
2022-12-13T23:39:39.088Z,0.80
2022-12-13T23:41:40.793Z,0.80
2022-12-13T23:43:43.963Z,0.80
2022-12-13T23:45:50.424Z,0.80
2022-12-13T23:47:54.190Z,0.80
2022-12-13T23:49:55.827Z,0.80
2022-12-13T23:51:57.462Z,0.80
2022-12-13T23:53:59.436Z,0.80
2022-12-13T23:56:09.936Z,0.80
2022-12-13T23:58:11.635Z,0.80
